createdAt,value
2019-04-25T00:01:47.571Z,7.84
2019-04-25T00:04:37.013Z,7.74
2019-04-25T00:07:06.758Z,7.75
2019-04-25T00:09:37.932Z,7.78
2019-04-25T00:12:07.952Z,7.74
2019-04-25T00:14:56.766Z,7.71
2019-04-25T00:17:27.161Z,7.65
2019-04-25T00:19:56.799Z,7.62
2019-04-25T00:22:29.464Z,7.58
2019-04-25T00:25:12.921Z,7.68
2019-04-25T00:27:32.863Z,7.57
2019-04-25T00:30:03.177Z,7.51
2019-04-25T00:32:33.023Z,7.47
2019-04-25T00:35:02.555Z,7.47
2019-04-25T00:37:32.361Z,7.40
2019-04-25T00:40:21.955Z,7.35
2019-04-25T00:42:52.611Z,7.25
2019-04-25T00:45:22.733Z,7.24
2019-04-25T00:47:52.939Z,7.21
2019-04-25T00:50:22.823Z,7.13
2019-04-25T00:52:55.080Z,7.13
2019-04-25T00:55:28.922Z,7.10
2019-04-25T00:57:58.942Z,7.05
2019-04-25T01:00:30.044Z,7.05
2019-04-25T01:03:01.862Z,7.07
2019-04-25T01:05:32.429Z,7.10
2019-04-25T01:08:02.189Z,7.05
2019-04-25T01:10:32.040Z,7.01
2019-04-25T01:13:03.117Z,7.06
2019-04-25T01:15:52.896Z,7.05
2019-04-25T01:18:23.304Z,6.97
2019-04-25T01:20:54.434Z,6.95
2019-04-25T01:23:24.174Z,6.90
2019-04-25T01:25:54.653Z,6.88
2019-04-25T01:28:24.485Z,6.84
2019-04-25T01:30:55.132Z,6.76
2019-04-25T01:33:25.678Z,6.78
2019-04-25T01:35:57.022Z,6.76
2019-04-25T01:38:28.227Z,6.82
2019-04-25T01:40:59.511Z,6.79
2019-04-25T01:43:30.605Z,6.76
2019-04-25T01:46:01.021Z,6.76
2019-04-25T01:48:30.513Z,6.61
2019-04-25T01:50:59.977Z,6.56
2019-04-25T01:53:49.122Z,6.43
2019-04-25T01:56:18.900Z,6.45
2019-04-25T01:59:07.863Z,5.96
2019-04-25T02:01:56.849Z,6.03
2019-04-25T02:04:26.344Z,6.56
2019-04-25T02:06:55.993Z,6.51
2019-04-25T02:09:25.520Z,6.52
2019-04-25T02:11:59.334Z,6.42
2019-04-25T02:14:28.992Z,6.29
2019-04-25T02:16:58.785Z,6.33
2019-04-25T02:19:28.275Z,6.28
2019-04-25T02:22:17.127Z,6.26
2019-04-25T02:24:47.562Z,6.27
2019-04-25T02:27:17.087Z,6.35
2019-04-25T02:29:46.585Z,6.35
2019-04-25T02:32:16.182Z,6.30
2019-04-25T02:34:45.835Z,6.31
2019-04-25T02:37:15.365Z,6.08
2019-04-25T02:39:45.096Z,5.94
2019-04-25T02:42:16.959Z,5.97
2019-04-25T02:44:47.569Z,5.99
2019-04-25T02:47:18.912Z,6.04
2019-04-25T02:49:50.054Z,5.99
2019-04-25T02:52:21.124Z,6.06
2019-04-25T02:54:50.635Z,6.08
2019-04-25T02:57:28.847Z,6.05
2019-04-25T02:59:58.570Z,6.03
2019-04-25T03:02:28.344Z,6.01
2019-04-25T03:04:59.427Z,6.02
2019-04-25T03:07:29.312Z,6.05
2019-04-25T03:09:59.539Z,6.00
2019-04-25T03:12:33.474Z,5.94
2019-04-25T03:15:02.069Z,5.90
2019-04-25T03:17:34.282Z,5.93
2019-04-25T03:20:24.593Z,5.84
2019-04-25T03:22:55.986Z,5.84
2019-04-25T03:25:25.461Z,5.82
2019-04-25T03:28:15.659Z,5.81
2019-04-25T03:30:45.284Z,5.72
2019-04-25T03:33:19.301Z,5.63
2019-04-25T03:35:46.242Z,5.64
2019-04-25T03:38:15.787Z,5.62
2019-04-25T03:40:45.237Z,5.54
2019-04-25T03:43:15.058Z,5.58
2019-04-25T03:45:45.306Z,5.67
2019-04-25T03:48:15.158Z,5.69
2019-04-25T03:50:44.646Z,5.68
2019-04-25T03:53:14.254Z,5.76
2019-04-25T03:56:05.126Z,5.74
2019-04-25T03:58:34.277Z,5.70
2019-04-25T04:01:06.949Z,5.73
2019-04-25T04:03:37.686Z,5.69
2019-04-25T04:06:09.825Z,5.71
2019-04-25T04:08:39.473Z,5.73
2019-04-25T04:11:10.145Z,5.69
2019-04-25T04:13:39.630Z,5.66
2019-04-25T04:16:10.710Z,5.67
2019-04-25T04:18:41.960Z,5.25
2019-04-25T04:21:15.799Z,5.34
2019-04-25T04:23:46.019Z,5.31
2019-04-25T04:26:15.730Z,5.48
2019-04-25T04:28:45.337Z,5.46
2019-04-25T04:31:15.458Z,5.47
2019-04-25T04:34:04.614Z,5.49
2019-04-25T04:36:34.079Z,5.64
2019-04-25T04:39:05.471Z,5.88
2019-04-25T04:41:55.502Z,5.73
2019-04-25T04:44:25.064Z,5.31
2019-04-25T04:47:15.296Z,5.63
2019-04-25T04:50:05.398Z,5.94
2019-04-25T04:52:34.963Z,5.84
2019-04-25T04:55:08.566Z,5.93
2019-04-25T04:57:37.205Z,6.06
2019-04-25T05:00:27.733Z,6.12
2019-04-25T05:02:58.793Z,6.28
2019-04-25T05:05:30.633Z,6.58
2019-04-25T05:08:03.808Z,6.80
2019-04-25T05:10:33.457Z,7.07
2019-04-25T05:13:22.256Z,7.39
2019-04-25T05:15:53.149Z,7.66
2019-04-25T05:18:34.583Z,7.70
2019-04-25T05:20:54.330Z,7.82
2019-04-25T05:23:24.907Z,8.02
2019-04-25T05:26:04.398Z,8.15
2019-04-25T05:28:54.806Z,8.16
2019-04-25T05:31:25.999Z,8.21
2019-04-25T05:33:55.482Z,8.41
2019-04-25T05:36:26.818Z,8.56
2019-04-25T05:38:56.562Z,8.58
2019-04-25T05:41:27.645Z,8.62
2019-04-25T05:43:57.103Z,8.72
2019-04-25T05:46:26.606Z,8.88
2019-04-25T05:48:56.076Z,9.10
2019-04-25T05:51:25.960Z,9.23
2019-04-25T05:53:55.594Z,9.39
2019-04-25T05:56:26.925Z,9.30
2019-04-25T05:59:15.891Z,9.60
2019-04-25T06:01:45.372Z,10.13
2019-04-25T06:04:14.857Z,9.82
2019-04-25T06:06:44.653Z,9.89
2019-04-25T06:09:15.801Z,10.08
2019-04-25T06:11:46.899Z,10.18
2019-04-25T06:14:18.383Z,10.32
2019-04-25T06:16:47.968Z,10.42
2019-04-25T06:19:20.822Z,10.65
2019-04-25T06:21:50.912Z,11.25
2019-04-25T06:24:24.341Z,11.59
2019-04-25T06:26:54.902Z,12.22
2019-04-25T06:29:57.359Z,12.60
2019-04-25T06:32:16.785Z,12.89
2019-04-25T06:34:46.378Z,13.17
2019-04-25T06:37:16.072Z,13.51
2019-04-25T06:39:45.542Z,13.75
2019-04-25T06:42:15.010Z,13.67
2019-04-25T06:44:46.267Z,13.56
2019-04-25T06:47:36.651Z,12.99
2019-04-25T06:50:08.046Z,13.20
2019-04-25T06:52:37.541Z,13.17
2019-04-25T06:55:27.242Z,12.70
2019-04-25T06:58:08.900Z,12.80
2019-04-25T07:00:29.829Z,13.43
2019-04-25T07:03:00.087Z,13.62
2019-04-25T07:05:35.859Z,14.78
2019-04-25T07:08:03.187Z,14.09
2019-04-25T07:10:33.922Z,14.80
2019-04-25T07:13:04.456Z,14.41
2019-04-25T07:15:35.195Z,13.76
2019-04-25T07:18:05.274Z,13.32
2019-04-25T07:20:40.819Z,13.13
2019-04-25T07:23:10.482Z,14.01
2019-04-25T07:25:41.862Z,15.55
2019-04-25T07:28:23.547Z,16.90
2019-04-25T07:30:51.695Z,18.62
2019-04-25T07:33:19.250Z,20.39
2019-04-25T07:35:48.743Z,17.45
2019-04-25T07:38:18.322Z,18.44
2019-04-25T07:41:07.101Z,18.63
2019-04-25T07:43:37.262Z,16.77
2019-04-25T07:46:10.922Z,15.70
2019-04-25T07:48:40.476Z,15.34
2019-04-25T07:51:10.074Z,15.07
2019-04-25T07:53:45.340Z,14.57
2019-04-25T07:56:15.215Z,15.39
2019-04-25T07:58:50.474Z,15.44
2019-04-25T08:01:16.332Z,16.04
2019-04-25T08:03:45.874Z,16.00
2019-04-25T08:06:15.466Z,15.71
2019-04-25T08:08:46.548Z,16.13
2019-04-25T08:11:36.226Z,16.88
2019-04-25T08:14:08.268Z,17.54
2019-04-25T08:16:39.496Z,16.32
2019-04-25T08:19:09.182Z,17.10
2019-04-25T08:21:39.580Z,17.35
2019-04-25T08:24:10.922Z,17.52
2019-04-25T08:26:41.766Z,17.86
2019-04-25T08:29:12.919Z,16.68
2019-04-25T08:31:43.920Z,16.27
2019-04-25T08:34:14.649Z,16.52
2019-04-25T08:36:45.674Z,16.67
2019-04-25T08:39:15.689Z,16.80
2019-04-25T08:41:45.801Z,16.05
2019-04-25T08:44:15.620Z,15.91
2019-04-25T08:47:04.607Z,15.68
2019-04-25T08:49:36.264Z,16.15
2019-04-25T08:52:06.256Z,16.68
2019-04-25T08:54:41.123Z,16.73
2019-04-25T08:57:10.219Z,16.70
2019-04-25T09:00:00.630Z,16.23
2019-04-25T09:02:34.469Z,16.72
2019-04-25T09:05:04.628Z,17.08
2019-04-25T09:07:35.438Z,17.38
2019-04-25T09:10:07.705Z,17.53
2019-04-25T09:12:37.798Z,17.90
2019-04-25T09:15:08.558Z,18.12
2019-04-25T09:17:38.089Z,17.70
2019-04-25T09:20:26.926Z,17.54
2019-04-25T09:22:56.412Z,17.79
2019-04-25T09:25:25.940Z,17.33
2019-04-25T09:27:55.470Z,17.46
2019-04-25T09:30:26.510Z,17.52
2019-04-25T09:33:15.346Z,17.49
2019-04-25T09:35:45.962Z,17.56
2019-04-25T09:38:15.986Z,18.26
2019-04-25T09:40:46.617Z,17.92
2019-04-25T09:43:18.575Z,18.86
2019-04-25T09:46:08.693Z,19.24
2019-04-25T09:48:40.265Z,19.15
2019-04-25T09:51:13.444Z,19.31
2019-04-25T09:53:50.030Z,19.76
2019-04-25T09:56:17.504Z,18.90
2019-04-25T09:58:49.469Z,18.58
2019-04-25T10:01:20.006Z,18.82
2019-04-25T10:04:08.983Z,19.18
2019-04-25T10:06:38.886Z,19.18
2019-04-25T10:09:10.846Z,18.88
2019-04-25T10:11:40.640Z,18.04
2019-04-25T10:14:14.926Z,18.71
2019-04-25T10:16:45.984Z,18.28
2019-04-25T10:19:34.803Z,18.41
2019-04-25T10:22:04.656Z,18.83
2019-04-25T10:25:00.245Z,19.16
2019-04-25T10:27:24.928Z,19.72
2019-04-25T10:29:57.169Z,20.51
2019-04-25T10:32:26.120Z,21.64
2019-04-25T10:34:55.592Z,23.18
2019-04-25T10:37:25.868Z,23.57
2019-04-25T10:39:55.737Z,22.30
2019-04-25T10:42:25.793Z,22.69
2019-04-25T10:44:56.652Z,22.76
2019-04-25T10:47:26.520Z,22.90
2019-04-25T10:49:56.001Z,22.30
2019-04-25T10:52:25.831Z,20.26
2019-04-25T10:54:56.725Z,19.96
2019-04-25T10:57:46.516Z,20.16
2019-04-25T11:00:24.038Z,20.14
2019-04-25T11:03:14.577Z,19.87
2019-04-25T11:06:04.009Z,21.70
2019-04-25T11:08:34.350Z,24.67
2019-04-25T11:11:04.400Z,23.86
2019-04-25T11:13:35.472Z,24.05
2019-04-25T11:16:08.204Z,24.38
2019-04-25T11:18:37.887Z,24.20
2019-04-25T11:21:07.546Z,23.63
2019-04-25T11:23:37.042Z,22.71
2019-04-25T11:26:06.926Z,23.10
2019-04-25T11:28:37.464Z,23.63
2019-04-25T11:31:08.915Z,23.97
2019-04-25T11:33:57.855Z,25.61
2019-04-25T11:36:27.756Z,25.14
2019-04-25T11:38:59.274Z,24.10
2019-04-25T11:41:29.158Z,24.71
2019-04-25T11:44:01.387Z,25.13
2019-04-25T11:46:40.178Z,25.55
2019-04-25T11:49:09.943Z,25.29
2019-04-25T11:51:39.668Z,24.64
2019-04-25T11:54:09.144Z,24.74
2019-04-25T11:56:38.629Z,25.05
2019-04-25T11:59:08.190Z,23.77
2019-04-25T12:01:47.538Z,24.31
2019-04-25T12:04:16.873Z,26.13
2019-04-25T12:06:47.576Z,25.84
2019-04-25T12:09:18.253Z,25.38
2019-04-25T12:11:50.391Z,24.38
2019-04-25T12:14:39.191Z,23.62
2019-04-25T12:17:08.668Z,23.12
2019-04-25T12:19:38.368Z,23.69
2019-04-25T12:22:27.410Z,24.04
2019-04-25T12:24:56.874Z,25.17
2019-04-25T12:27:48.583Z,25.92
2019-04-25T12:30:17.509Z,25.36
2019-04-25T12:33:18.271Z,25.64
2019-04-25T12:35:56.873Z,27.09
2019-04-25T12:38:26.384Z,25.13
2019-04-25T12:40:56.128Z,25.30
2019-04-25T12:43:27.234Z,24.72
2019-04-25T12:45:58.454Z,25.27
2019-04-25T12:48:28.116Z,26.11
2019-04-25T12:50:57.931Z,26.29
2019-04-25T12:53:27.680Z,26.94
2019-04-25T12:56:16.525Z,26.59
2019-04-25T12:58:46.050Z,26.98
2019-04-25T13:01:16.177Z,27.12
2019-04-25T13:03:45.675Z,27.06
2019-04-25T13:06:15.803Z,27.29
2019-04-25T13:08:45.444Z,26.54
2019-04-25T13:11:15.187Z,27.57
2019-04-25T13:13:46.194Z,27.82
2019-04-25T13:16:35.011Z,28.01
2019-04-25T13:19:16.376Z,27.32
2019-04-25T13:21:38.567Z,26.39
2019-04-25T13:24:08.061Z,26.28
2019-04-25T13:26:43.508Z,27.24
2019-04-25T13:29:14.722Z,27.98
2019-04-25T13:31:45.963Z,28.83
2019-04-25T13:34:17.101Z,28.20
2019-04-25T13:36:46.590Z,27.09
2019-04-25T13:39:35.405Z,25.87
2019-04-25T13:42:06.749Z,25.72
2019-04-25T13:44:36.307Z,24.70
2019-04-25T13:47:06.755Z,25.18
2019-04-25T13:49:36.565Z,25.07
2019-04-25T13:52:09.370Z,26.03
2019-04-25T13:54:39.040Z,25.60
2019-04-25T13:57:08.571Z,25.74
2019-04-25T13:59:41.014Z,25.26
2019-04-25T14:02:11.242Z,25.65
2019-04-25T14:04:46.357Z,25.57
2019-04-25T14:07:15.987Z,25.52
2019-04-25T14:10:06.275Z,25.83
2019-04-25T14:12:55.184Z,26.22
2019-04-25T14:15:25.638Z,26.26
2019-04-25T14:17:56.909Z,26.52
2019-04-25T14:20:28.094Z,26.24
2019-04-25T14:23:17.591Z,26.13
2019-04-25T14:25:47.227Z,26.10
2019-04-25T14:28:16.894Z,25.95
2019-04-25T14:30:46.435Z,26.19
2019-04-25T14:33:15.994Z,26.34
2019-04-25T14:35:45.484Z,26.30
2019-04-25T14:38:17.714Z,26.77
2019-04-25T14:40:48.760Z,27.17
2019-04-25T14:43:18.258Z,27.48
2019-04-25T14:45:47.764Z,27.66
2019-04-25T14:48:17.263Z,27.74
2019-04-25T14:50:46.921Z,28.19
2019-04-25T14:53:16.448Z,28.32
2019-04-25T14:55:47.567Z,28.03
2019-04-25T14:58:18.896Z,27.83
2019-04-25T15:00:50.114Z,26.76
2019-04-25T15:03:19.569Z,26.49
2019-04-25T15:05:49.068Z,25.80
2019-04-25T15:08:18.612Z,25.97
2019-04-25T15:10:48.569Z,26.25
2019-04-25T15:13:18.322Z,25.79
2019-04-25T15:15:48.013Z,25.72
2019-04-25T15:18:17.538Z,25.97
2019-04-25T15:20:47.038Z,25.69
2019-04-25T15:23:16.546Z,25.37
2019-04-25T15:25:46.047Z,24.96
2019-04-25T15:28:15.598Z,24.97
2019-04-25T15:30:45.946Z,24.15
2019-04-25T15:33:15.547Z,23.42
2019-04-25T15:35:46.625Z,23.38
2019-04-25T15:38:17.857Z,22.77
2019-04-25T15:40:50.921Z,22.72
2019-04-25T15:43:41.371Z,22.31
2019-04-25T15:46:12.619Z,22.01
2019-04-25T15:48:42.194Z,22.09
2019-04-25T15:51:18.483Z,21.60
2019-04-25T15:53:47.940Z,21.89
2019-04-25T15:56:17.478Z,21.58
2019-04-25T15:58:47.062Z,21.45
2019-04-25T16:01:16.925Z,21.52
2019-04-25T16:03:46.413Z,21.59
2019-04-25T16:06:15.949Z,20.93
2019-04-25T16:08:45.606Z,20.91
2019-04-25T16:11:15.372Z,21.08
2019-04-25T16:13:44.890Z,20.86
2019-04-25T16:16:14.386Z,20.76
2019-04-25T16:18:43.901Z,20.71
2019-04-25T16:21:13.435Z,20.65
2019-04-25T16:23:42.958Z,20.81
2019-04-25T16:26:13.042Z,20.33
2019-04-25T16:28:42.569Z,20.20
2019-04-25T16:31:13.647Z,20.33
2019-04-25T16:33:43.138Z,19.74
2019-04-25T16:36:12.928Z,19.86
2019-04-25T16:38:42.426Z,19.83
2019-04-25T16:41:12.240Z,19.44
2019-04-25T16:43:43.388Z,19.04
2019-04-25T16:46:13.823Z,19.21
2019-04-25T16:48:43.366Z,19.00
2019-04-25T16:51:13.282Z,18.81
2019-04-25T16:53:42.746Z,18.83
2019-04-25T16:56:12.548Z,18.65
2019-04-25T16:59:01.442Z,18.50
2019-04-25T17:01:31.668Z,18.35
2019-04-25T17:04:01.426Z,18.05
2019-04-25T17:06:31.435Z,18.00
2019-04-25T17:09:00.884Z,17.45
2019-04-25T17:11:30.990Z,17.83
2019-04-25T17:14:03.109Z,17.80
2019-04-25T17:16:34.776Z,17.93
2019-04-25T17:19:06.068Z,17.87
2019-04-25T17:21:55.067Z,17.63
2019-04-25T17:24:24.529Z,17.63
2019-04-25T17:26:53.851Z,17.46
2019-04-25T17:29:23.423Z,17.31
2019-04-25T17:31:54.502Z,17.16
2019-04-25T17:34:25.758Z,17.18
2019-04-25T17:36:56.854Z,17.08
2019-04-25T17:39:28.027Z,17.19
2019-04-25T17:41:57.523Z,17.11
2019-04-25T17:44:46.382Z,16.95
2019-04-25T17:47:15.951Z,16.85
2019-04-25T17:49:45.706Z,16.96
2019-04-25T17:52:15.196Z,16.53
2019-04-25T17:54:46.178Z,16.60
2019-04-25T17:57:15.751Z,16.33
2019-04-25T18:00:08.694Z,16.28
2019-04-25T18:02:39.139Z,15.96
2019-04-25T18:05:09.026Z,15.95
2019-04-25T18:07:39.024Z,15.67
2019-04-25T18:10:10.419Z,15.47
2019-04-25T18:12:40.102Z,15.13
2019-04-25T18:15:30.599Z,15.03
2019-04-25T18:18:01.968Z,14.92
2019-04-25T18:33:10.618Z,14.37
2019-04-25T18:35:41.682Z,14.27
2019-04-25T18:38:31.896Z,14.28
2019-04-25T18:41:03.332Z,14.21
2019-04-25T18:43:34.410Z,14.32
2019-04-25T18:46:05.527Z,14.29
2019-04-25T18:48:35.003Z,14.34
2019-04-25T18:51:07.321Z,14.13
2019-04-25T18:53:39.200Z,14.04
2019-04-25T18:56:11.301Z,14.12
2019-04-25T18:58:42.427Z,14.11
2019-04-25T19:01:13.504Z,13.99
2019-04-25T19:03:45.792Z,13.97
2019-04-25T19:06:17.071Z,14.08
2019-04-25T19:08:47.129Z,14.05
2019-04-25T19:11:16.651Z,13.95
2019-04-25T19:13:47.372Z,13.89
2019-04-25T19:16:36.258Z,13.81
2019-04-25T19:19:05.891Z,13.59
2019-04-25T19:21:35.379Z,13.63
2019-04-25T19:24:06.041Z,13.69
2019-04-25T19:26:35.580Z,13.69
2019-04-25T19:29:05.148Z,13.61
2019-04-25T19:31:34.705Z,13.56
2019-04-25T19:34:04.801Z,13.59
2019-04-25T19:36:34.278Z,13.66
2019-04-25T19:39:05.803Z,13.62
2019-04-25T19:41:36.904Z,13.57
2019-04-25T19:44:08.188Z,13.33
2019-04-25T19:46:57.030Z,13.51
2019-04-25T19:49:26.538Z,13.46
2019-04-25T19:51:55.988Z,13.32
2019-04-25T19:54:25.523Z,13.47
2019-04-25T19:56:56.466Z,13.40
2019-04-25T19:59:26.097Z,13.35
2019-04-25T20:02:16.608Z,13.31
2019-04-25T20:04:48.652Z,13.34
2019-04-25T20:07:20.017Z,13.11
2019-04-25T20:09:51.213Z,12.98
2019-04-25T20:12:22.296Z,13.14
2019-04-25T20:14:51.774Z,13.15
2019-04-25T20:17:40.557Z,13.11
2019-04-25T20:20:13.355Z,13.09
2019-04-25T20:22:43.801Z,13.13
2019-04-25T20:25:14.729Z,13.12
2019-04-25T20:27:44.445Z,13.16
2019-04-25T20:30:34.501Z,13.21
2019-04-25T20:33:05.564Z,13.20
2019-04-25T20:35:35.071Z,12.94
2019-04-25T20:38:04.859Z,13.00
2019-04-25T20:40:34.357Z,13.02
2019-04-25T20:43:03.830Z,12.80
2019-04-25T20:45:33.437Z,12.84
2019-04-25T20:48:02.890Z,12.89
2019-04-25T20:50:32.357Z,12.91
2019-04-25T20:53:01.848Z,12.63
2019-04-25T20:55:31.319Z,12.92
2019-04-25T20:58:00.818Z,12.88
2019-04-25T21:00:35.638Z,12.87
2019-04-25T21:03:24.410Z,12.81
2019-04-25T21:05:55.540Z,12.81
2019-04-25T21:08:25.240Z,12.76
2019-04-25T21:11:14.103Z,12.77
2019-04-25T21:13:45.204Z,12.74
2019-04-25T21:16:16.306Z,12.43
2019-04-25T21:18:47.477Z,12.50
2019-04-25T21:21:16.974Z,12.24
2019-04-25T21:24:05.798Z,12.15
2019-04-25T21:26:35.350Z,12.15
2019-04-25T21:29:05.016Z,12.07
2019-04-25T21:31:34.606Z,11.99
2019-04-25T21:34:04.085Z,11.99
2019-04-25T21:36:33.917Z,11.84
2019-04-25T21:39:06.726Z,11.83
2019-04-25T21:41:57.703Z,11.77
2019-04-25T21:44:46.893Z,11.64
2019-04-25T21:47:16.377Z,11.53
2019-04-25T21:49:46.292Z,11.42
2019-04-25T21:52:15.802Z,11.35
2019-04-25T21:54:45.638Z,11.37
2019-04-25T21:57:36.119Z,11.34
2019-04-25T22:00:11.039Z,11.29
2019-04-25T22:02:42.609Z,11.33
2019-04-25T22:05:13.553Z,11.34
2019-04-25T22:07:43.505Z,11.29
2019-04-25T22:10:13.892Z,11.26
2019-04-25T22:12:43.442Z,11.24
2019-04-25T22:15:13.482Z,11.13
2019-04-25T22:17:43.225Z,11.02
2019-04-25T22:20:13.537Z,10.98
2019-04-25T22:22:44.778Z,10.84
2019-04-25T22:25:15.882Z,10.72
2019-04-25T22:27:46.300Z,10.71
2019-04-25T22:30:17.770Z,10.71
2019-04-25T22:32:49.194Z,10.67
2019-04-25T22:35:29.140Z,10.55
2019-04-25T22:37:59.996Z,10.59
2019-04-25T22:40:31.024Z,10.53
2019-04-25T22:43:01.658Z,10.60
2019-04-25T22:45:31.273Z,10.51
2019-04-25T22:48:01.308Z,10.64
2019-04-25T22:50:31.886Z,10.64
2019-04-25T22:53:02.072Z,10.57
2019-04-25T22:55:33.093Z,10.56
2019-04-25T22:58:03.623Z,10.37
2019-04-25T23:00:34.966Z,10.28
2019-04-25T23:03:07.320Z,10.28
2019-04-25T23:05:38.462Z,10.31
2019-04-25T23:08:08.166Z,10.40
2019-04-25T23:10:39.611Z,10.38
2019-04-25T23:13:10.950Z,10.37
2019-04-25T23:15:40.589Z,10.39
2019-04-25T23:18:11.402Z,10.57
2019-04-25T23:20:40.947Z,10.75
2019-04-25T23:23:11.693Z,10.82
2019-04-25T23:25:42.918Z,10.83
2019-04-25T23:28:14.217Z,10.82
2019-04-25T23:30:45.653Z,10.74
2019-04-25T23:33:21.068Z,10.63
2019-04-25T23:35:51.600Z,10.70
2019-04-25T23:38:26.740Z,10.85
2019-04-25T23:40:56.228Z,10.87
2019-04-25T23:43:26.026Z,10.92
2019-04-25T23:45:55.534Z,10.84
2019-04-25T23:48:25.216Z,10.81
2019-04-25T23:51:00.897Z,10.74
2019-04-25T23:53:30.921Z,10.66
2019-04-25T23:56:00.651Z,10.82
2019-04-25T23:58:30.251Z,10.82
